Mosgiel, New Zealand
Current Conditions -  °F | °C
As of 9:00 AM on Tuesday 21 Oct 2014 (Local Time) from NZCH Reporting Station
Clear Clear  
Wind Chill: 52°   Ceiling: Unl
Heat Index: 52°   Visibility: 6mi
Dew Point: 41°   Wind: 8mph
Humidity: 67%   Direction: 20°NNE
Pressure: 30.09"   Gusts: NA
Location:  45.88°S, 170.35°E
Report Text: NZCH 202100Z AUTO 02007KT 340V070 9999 NCD 11/05 Q1019 BECMG06010KT
Loading
Personal Weather Stations






























Interactive Weather Map
Tropical Storm Tracking
New forecast layout! Learn more

10-Day Weather Forecast

Advertisements
Track Severe Weather on mobile